Time;durP1;ratioP1;P1;durP2;ratioP2;P2;SDS_P1;SDS_P2;PMS_P1;PMS_P2;Temp;Humidity;BMP_temperature;BMP_pressure;BME280_temperature;BME280_humidity;BME280_pressure;Samples;Min_cycle;Max_cycle;Signal;HPM_P1;HPM_P2
2022/05/09 00:00:04;;;;;;;15.18;9.18;;;12.50;99.70;;;;;;4172147;28;20061;-74
2022/05/09 00:02:08;;;;;;;51.35;26.63;;;12.40;99.90;;;;;;4175363;28;20061;-74
2022/05/09 00:04:10;;;;;;;47.75;27.15;;;12.40;99.90;;;;;;4176875;28;20057;-74
2022/05/09 00:06:12;;;;;;;17.98;12.65;;;12.40;99.90;;;;;;4176972;28;20065;-74
2022/05/09 00:08:14;;;;;;;15.10;11.07;;;12.40;99.90;;;;;;4172072;28;20058;-74
2022/05/09 00:10:18;;;;;;;19.00;12.70;;;12.40;99.90;;;;;;4170690;28;20884;-74
2022/05/09 00:12:20;;;;;;;30.45;17.83;;;12.30;99.90;;;;;;4171185;28;20792;-74
2022/05/09 00:14:22;;;;;;;44.72;27.05;;;12.30;99.90;;;;;;4168526;28;20057;-74
2022/05/09 00:16:24;;;;;;;74.43;39.97;;;12.30;99.90;;;;;;4169760;28;20799;-74
2022/05/09 00:18:26;;;;;;;76.25;44.03;;;12.30;99.90;;;;;;4169970;28;20064;-74
2022/05/09 00:20:28;;;;;;;57.85;35.63;;;12.30;99.90;;;;;;4166338;28;20065;-74
2022/05/09 00:22:30;;;;;;;56.53;35.30;;;12.30;99.90;;;;;;4168931;28;20057;-74
2022/05/09 00:24:32;;;;;;;35.22;21.42;;;12.30;99.90;;;;;;4166991;28;20057;-74
2022/05/09 00:26:33;;;;;;;26.10;15.63;;;12.20;99.90;;;;;;4174454;28;20084;-73
2022/05/09 00:28:35;;;;;;;45.78;28.05;;;12.20;99.90;;;;;;4172639;28;20063;-74
2022/05/09 00:30:37;;;;;;;8.98;8.15;;;12.20;99.90;;;;;;4168200;28;20057;-74
2022/05/09 00:32:39;;;;;;;10.63;9.02;;;12.20;99.90;;;;;;4167879;28;20053;-74
2022/05/09 00:34:40;;;;;;;9.90;8.90;;;12.20;99.90;;;;;;4168220;28;20054;-74
2022/05/09 00:36:43;;;;;;;14.65;10.93;;;12.20;99.90;;;;;;4168697;28;20845;-74
2022/05/09 00:38:45;;;;;;;22.27;16.83;;;12.10;99.90;;;;;;4169755;28;20058;-73
2022/05/09 00:43:34;;;;;;;20.77;14.90;;;12.10;99.90;;;;;;4172495;28;20100;-73
2022/05/09 00:45:35;;;;;;;19.23;13.45;;;11.90;99.90;;;;;;4169392;28;20867;-74
2022/05/09 00:47:37;;;;;;;21.63;16.08;;;11.90;99.90;;;;;;4171532;28;20054;-74
2022/05/09 00:50:00;;;;;;;17.08;12.88;;;11.80;99.90;;;;;;4176707;28;20053;-74
2022/05/09 00:52:03;;;;;;;8.95;7.80;;;11.90;99.90;;;;;;4170383;28;20115;-73
2022/05/09 00:54:05;;;;;;;8.77;6.43;;;11.90;99.90;;;;;;4174549;28;20788;-73
2022/05/09 00:56:14;;;;;;;7.78;7.07;;;11.90;99.90;;;;;;4172146;28;20058;-74
2022/05/09 00:58:26;;;;;;;9.63;7.68;;;11.80;99.90;;;;;;4172207;28;20057;-74
2022/05/09 01:00:28;;;;;;;10.77;7.07;;;11.80;99.90;;;;;;4172081;28;20659;-74
2022/05/09 01:02:31;;;;;;;7.95;6.82;;;11.80;99.90;;;;;;4172344;28;20062;-74
2022/05/09 01:04:40;;;;;;;8.43;6.88;;;11.80;99.90;;;;;;4173543;28;20836;-73
2022/05/09 01:06:42;;;;;;;7.63;7.13;;;11.80;99.90;;;;;;4173187;28;20068;-73
2022/05/09 01:08:44;;;;;;;8.10;7.22;;;11.80;99.90;;;;;;4172992;28;20054;-74
2022/05/09 01:10:47;;;;;;;7.97;7.38;;;11.70;99.90;;;;;;4172495;28;20066;-74
2022/05/09 01:12:50;;;;;;;8.45;7.80;;;11.60;99.90;;;;;;4172764;28;20058;-74
2022/05/09 01:14:52;;;;;;;8.32;7.63;;;11.60;99.90;;;;;;4174369;28;20065;-73
2022/05/09 01:16:53;;;;;;;8.35;7.00;;;11.50;99.90;;;;;;4172794;28;20058;-73
2022/05/09 01:18:58;;;;;;;7.40;6.60;;;11.60;99.90;;;;;;4173207;28;20157;-73
2022/05/09 01:21:00;;;;;;;8.55;7.30;;;11.60;99.90;;;;;;4171866;28;20091;-73
2022/05/09 01:23:04;;;;;;;7.53;6.88;;;11.60;99.90;;;;;;4169428;28;20062;-74
2022/05/09 01:25:08;;;;;;;8.15;7.45;;;11.60;99.90;;;;;;4173816;28;20747;-74
2022/05/09 01:27:10;;;;;;;7.10;6.50;;;11.50;99.90;;;;;;4168682;28;20063;-73
2022/05/09 01:29:50;;;;;;;7.80;7.20;;;11.50;99.90;;;;;;4167998;28;20061;-73
2022/05/09 01:31:53;;;;;;;19.02;14.45;;;11.50;99.90;;;;;;4140681;28;20058;-74
2022/05/09 01:33:56;;;;;;;24.45;17.63;;;11.50;99.90;;;;;;4167508;28;20864;-73
2022/05/09 01:36:06;;;;;;;25.75;17.67;;;11.50;99.90;;;;;;4166549;28;20057;-74
2022/05/09 01:38:42;;;;;;;29.43;18.17;;;11.40;99.90;;;;;;4178829;28;20061;-73
2022/05/09 01:40:44;;;;;;;16.98;12.18;;;11.50;99.90;;;;;;4169715;28;20459;-73
2022/05/09 01:42:46;;;;;;;18.02;12.65;;;11.40;99.90;;;;;;4177291;28;20173;-73
2022/05/09 01:44:48;;;;;;;17.75;12.98;;;11.40;99.90;;;;;;4169811;28;20057;-73
2022/05/09 01:51:30;;;;;;;58.63;33.22;;;11.40;99.90;;;;;;4170901;28;20196;-73
2022/05/09 01:53:32;;;;;;;61.53;36.83;;;11.40;99.90;;;;;;4170717;28;20062;-74
2022/05/09 01:55:34;;;;;;;123.57;71.90;;;11.40;99.90;;;;;;4170860;28;20057;-73
2022/05/09 01:57:35;;;;;;;79.13;50.75;;;11.40;99.90;;;;;;4172205;28;20100;-73
2022/05/09 01:59:39;;;;;;;56.80;36.67;;;11.30;99.90;;;;;;4180223;28;20064;-74
2022/05/09 02:01:45;;;;;;;39.90;27.40;;;11.30;99.90;;;;;;4172483;28;20610;-73
2022/05/09 02:03:47;;;;;;;24.25;17.85;;;11.20;99.90;;;;;;4174105;28;20939;-73
2022/05/09 02:05:49;;;;;;;25.45;19.00;;;11.20;99.90;;;;;;4176172;28;20057;-73
2022/05/09 02:07:50;;;;;;;25.52;19.23;;;11.30;99.90;;;;;;4173065;28;20065;-73
2022/05/09 02:09:52;;;;;;;20.58;16.05;;;11.30;99.90;;;;;;4174441;28;20054;-73
2022/05/09 02:11:54;;;;;;;19.02;16.20;;;11.30;99.90;;;;;;4172123;28;20136;-73
2022/05/09 02:13:56;;;;;;;18.30;15.45;;;11.30;99.90;;;;;;4175321;28;20068;-73
2022/05/09 02:15:58;;;;;;;16.58;13.30;;;11.30;99.90;;;;;;4173678;28;20057;-73
2022/05/09 02:18:00;;;;;;;16.60;13.27;;;11.30;99.90;;;;;;4174531;28;20054;-73
2022/05/09 02:20:02;;;;;;;15.38;11.50;;;11.20;99.90;;;;;;4176665;28;20041;-73
2022/05/09 02:22:05;;;;;;;16.75;11.00;;;11.20;99.90;;;;;;4176124;28;20910;-74
2022/05/09 02:24:07;;;;;;;11.70;10.15;;;11.20;99.90;;;;;;4174677;28;20061;-73
2022/05/09 02:26:09;;;;;;;11.40;9.73;;;11.20;99.90;;;;;;4174770;28;20057;-73
2022/05/09 02:28:12;;;;;;;10.23;9.18;;;11.20;99.90;;;;;;4174328;28;20054;-73
2022/05/09 02:30:14;;;;;;;11.10;9.43;;;11.20;99.90;;;;;;4173889;28;20046;-73
2022/05/09 02:32:16;;;;;;;10.23;9.23;;;11.20;99.90;;;;;;4176430;28;21237;-73
2022/05/09 02:34:19;;;;;;;9.90;8.98;;;11.10;99.90;;;;;;4174303;28;20067;-73
2022/05/09 02:36:21;;;;;;;9.18;8.27;;;11.10;99.90;;;;;;4174356;28;20054;-73
2022/05/09 02:38:24;;;;;;;8.73;7.90;;;11.10;99.90;;;;;;4171934;28;20064;-73
2022/05/09 02:40:26;;;;;;;9.70;7.95;;;11.10;99.90;;;;;;4174734;28;20061;-73
2022/05/09 02:42:28;;;;;;;9.13;8.25;;;11.10;99.90;;;;;;4178821;28;20061;-73
2022/05/09 02:44:29;;;;;;;8.35;7.55;;;11.10;99.90;;;;;;4173480;28;20811;-73
2022/05/09 02:46:31;;;;;;;9.23;8.25;;;11.10;99.90;;;;;;4171154;28;20144;-73
2022/05/09 02:48:35;;;;;;;8.93;8.07;;;11.00;99.90;;;;;;4170640;28;20180;-73
2022/05/09 02:50:37;;;;;;;9.45;7.57;;;11.10;99.90;;;;;;4168987;28;20057;-73
2022/05/09 02:52:39;;;;;;;9.63;8.65;;;11.00;99.90;;;;;;4168194;28;20939;-73
2022/05/09 02:54:41;;;;;;;9.27;7.97;;;11.10;99.90;;;;;;4172006;28;20049;-73
2022/05/09 02:56:42;;;;;;;8.35;7.60;;;11.10;99.90;;;;;;4169037;28;20058;-73
2022/05/09 02:58:44;;;;;;;8.82;8.05;;;11.10;99.90;;;;;;4171056;28;20081;-73
2022/05/09 03:00:46;;;;;;;9.07;7.68;;;11.10;99.90;;;;;;4178206;28;20663;-73
2022/05/09 03:05:09;;;;;;;9.43;8.52;;;11.00;99.90;;;;;;4168721;28;20062;-73
2022/05/09 03:07:15;;;;;;;8.90;8.05;;;11.00;99.90;;;;;;4168780;28;20061;-73
2022/05/09 03:09:17;;;;;;;10.18;7.60;;;11.00;99.90;;;;;;4172310;28;20061;-73
2022/05/09 03:11:19;;;;;;;9.05;8.15;;;10.90;99.90;;;;;;4167131;28;20065;-76
2022/05/09 03:13:20;;;;;;;7.93;7.30;;;10.90;99.90;;;;;;4169911;28;20187;-73
2022/05/09 03:15:22;;;;;;;8.77;8.02;;;10.90;99.90;;;;;;4169145;28;20050;-73
2022/05/09 03:17:24;;;;;;;8.82;8.02;;;10.90;99.90;;;;;;4171709;28;20060;-73
2022/05/09 03:19:26;;;;;;;9.38;7.78;;;10.90;99.90;;;;;;4169517;28;20058;-73
2022/05/09 03:21:27;;;;;;;9.10;8.10;;;10.80;99.90;;;;;;4175301;28;20065;-73
2022/05/09 03:23:29;;;;;;;9.02;7.95;;;10.80;99.90;;;;;;4177437;28;20160;-73
2022/05/09 03:25:31;;;;;;;16.55;8.55;;;10.80;99.90;;;;;;4176317;28;20064;-73
2022/05/09 03:27:33;;;;;;;14.15;9.68;;;10.80;99.90;;;;;;4172387;28;20121;-73
2022/05/09 03:29:35;;;;;;;18.48;10.80;;;10.80;99.90;;;;;;4175700;28;20777;-73
2022/05/09 03:31:36;;;;;;;10.95;9.55;;;10.70;99.90;;;;;;4176020;28;20651;-73
2022/05/09 03:33:39;;;;;;;12.05;8.70;;;10.70;99.90;;;;;;4173303;28;20942;-73
2022/05/09 03:35:42;;;;;;;14.63;9.07;;;10.70;99.90;;;;;;4173892;28;20064;-73
2022/05/09 03:37:44;;;;;;;8.93;8.10;;;10.70;99.90;;;;;;4173627;28;20059;-73
2022/05/09 03:39:46;;;;;;;9.07;8.23;;;10.70;99.90;;;;;;4179556;28;20064;-73
2022/05/09 03:41:47;;;;;;;14.75;9.43;;;10.70;99.90;;;;;;4179482;28;20072;-73
2022/05/09 03:43:49;;;;;;;10.13;8.25;;;10.60;99.90;;;;;;4178096;28;20061;-73
2022/05/09 03:45:52;;;;;;;9.10;8.20;;;10.60;99.90;;;;;;4179116;28;20053;-74
2022/05/09 03:47:54;;;;;;;17.80;9.50;;;10.60;99.90;;;;;;4178779;28;21280;-73
2022/05/09 03:49:57;;;;;;;11.63;9.20;;;10.60;99.90;;;;;;4183120;28;20164;-74
2022/05/09 03:51:59;;;;;;;9.30;8.40;;;10.60;99.90;;;;;;4180499;28;20060;-73
2022/05/09 03:54:01;;;;;;;10.65;8.63;;;10.60;99.90;;;;;;4177853;28;20058;-74
2022/05/09 03:56:05;;;;;;;11.77;8.98;;;10.60;99.90;;;;;;4176774;28;20061;-73
2022/05/09 03:58:11;;;;;;;8.75;7.95;;;10.60;99.90;;;;;;4178590;28;20065;-73
2022/05/09 04:00:14;;;;;;;9.75;8.85;;;10.50;99.90;;;;;;4177232;28;20104;-73
2022/05/09 04:02:16;;;;;;;10.75;8.90;;;10.50;99.90;;;;;;4176394;28;20096;-74
2022/05/09 04:04:18;;;;;;;9.35;8.55;;;10.50;99.90;;;;;;4178564;28;20100;-73
2022/05/09 04:06:21;;;;;;;11.20;9.13;;;10.60;99.90;;;;;;4176950;28;20068;-73
2022/05/09 04:08:23;;;;;;;9.82;8.90;;;10.50;99.90;;;;;;4175604;28;20054;-74
2022/05/09 04:10:27;;;;;;;9.98;8.50;;;10.50;99.90;;;;;;4173773;28;20101;-73
2022/05/09 04:12:29;;;;;;;9.73;8.73;;;10.50;99.90;;;;;;4166827;28;20183;-73
2022/05/09 04:16:55;;;;;;;11.95;9.07;;;10.60;99.90;;;;;;4170869;28;20092;-73
2022/05/09 04:18:59;;;;;;;8.93;8.10;;;10.60;99.90;;;;;;4167740;28;20841;-74
2022/05/09 04:21:00;;;;;;;10.18;9.18;;;10.70;99.90;;;;;;4191322;22;20850;-75
2022/05/09 04:23:03;;;;;;;10.30;8.73;;;10.60;99.90;;;;;;4172302;28;20754;-75
2022/05/09 04:25:06;;;;;;;9.68;8.68;;;10.70;99.90;;;;;;4172364;28;20094;-76
2022/05/09 04:27:07;;;;;;;10.95;8.90;;;10.70;99.90;;;;;;4165769;28;20097;-75
2022/05/09 04:29:09;;;;;;;10.13;8.90;;;10.70;99.90;;;;;;4170198;28;20816;-75
2022/05/09 04:31:11;;;;;;;11.02;9.27;;;10.70;99.90;;;;;;4171058;28;20940;-76
2022/05/09 04:33:13;;;;;;;9.88;8.90;;;10.80;99.90;;;;;;4172183;28;20823;-75
2022/05/09 04:35:19;;;;;;;10.60;9.45;;;10.90;99.90;;;;;;4168803;28;20058;-75
2022/05/09 04:37:21;;;;;;;10.98;9.07;;;10.90;99.90;;;;;;4161944;28;20068;-76
2022/05/09 04:39:23;;;;;;;9.82;8.93;;;10.90;99.90;;;;;;4173265;28;20480;-75
2022/05/09 04:41:25;;;;;;;9.32;8.48;;;11.00;99.90;;;;;;4164848;28;20092;-75
2022/05/09 04:43:31;;;;;;;10.43;9.43;;;11.00;99.90;;;;;;4158686;28;20066;-77
2022/05/09 04:45:33;;;;;;;9.73;8.82;;;11.20;99.90;;;;;;4165699;28;20058;-75
2022/05/09 04:47:35;;;;;;;10.43;9.45;;;11.20;99.90;;;;;;4166471;28;20139;-75
2022/05/09 04:49:37;;;;;;;9.80;8.88;;;11.20;99.90;;;;;;4164601;28;20711;-75
2022/05/09 04:51:38;;;;;;;10.30;9.35;;;11.20;99.90;;;;;;4162769;28;20777;-75
2022/05/09 04:53:40;;;;;;;9.43;8.52;;;11.30;99.90;;;;;;4164225;28;20089;-74
2022/05/09 04:55:42;;;;;;;10.18;9.18;;;11.40;99.90;;;;;;4169917;28;20066;-75
2022/05/09 04:57:44;;;;;;;10.63;9.63;;;11.60;99.90;;;;;;4165410;28;20057;-74
2022/05/09 04:59:46;;;;;;;10.65;9.52;;;11.70;99.90;;;;;;4169592;28;20062;-74
2022/05/09 05:01:48;;;;;;;9.82;8.77;;;11.80;99.90;;;;;;4156565;28;20089;-74
2022/05/09 05:03:50;;;;;;;10.65;9.48;;;11.90;99.90;;;;;;4164918;28;20054;-73
2022/05/09 05:05:53;;;;;;;13.73;9.70;;;12.00;99.90;;;;;;4167895;28;20068;-74
2022/05/09 05:07:55;;;;;;;10.70;9.60;;;12.10;99.90;;;;;;4165318;28;20880;-74
2022/05/09 05:10:00;;;;;;;16.40;12.95;;;12.20;99.90;;;;;;4162890;28;20066;-74
2022/05/09 05:12:03;;;;;;;12.75;10.75;;;12.40;99.90;;;;;;4176997;28;20113;-74
2022/05/09 05:14:05;;;;;;;15.90;10.57;;;12.50;99.90;;;;;;4155770;28;20066;-73
2022/05/09 05:16:07;;;;;;;12.15;9.40;;;12.60;99.90;;;;;;4163661;28;20975;-74
2022/05/09 05:18:09;;;;;;;9.93;8.93;;;12.70;99.90;;;;;;4172576;28;20061;-75
2022/05/09 05:20:14;;;;;;;10.00;8.93;;;12.80;99.90;;;;;;4164588;28;20117;-74
2022/05/09 05:22:16;;;;;;;10.35;9.45;;;12.90;99.90;;;;;;4166858;28;20058;-74
2022/05/09 05:24:18;;;;;;;10.27;9.23;;;12.90;99.90;;;;;;4168149;28;20054;-74
2022/05/09 05:26:19;;;;;;;17.45;11.68;;;13.00;99.90;;;;;;4172695;28;20057;-73
2022/05/09 05:28:21;;;;;;;17.85;13.10;;;13.10;99.90;;;;;;4167867;28;20120;-73
2022/05/09 05:30:26;;;;;;;26.33;17.35;;;13.20;99.90;;;;;;4162169;28;20136;-74
2022/05/09 05:32:35;;;;;;;16.25;11.60;;;13.40;99.90;;;;;;4165437;28;20089;-74
2022/05/09 05:34:36;;;;;;;13.52;10.13;;;13.50;99.90;;;;;;4166720;28;20128;-73
2022/05/09 05:36:41;;;;;;;11.85;8.65;;;13.60;99.90;;;;;;4174311;28;20781;-73
2022/05/09 05:38:43;;;;;;;9.68;8.45;;;13.70;99.90;;;;;;4166848;28;20160;-73
2022/05/09 05:40:45;;;;;;;12.13;8.90;;;13.80;99.90;;;;;;4165149;28;20054;-73
2022/05/09 05:42:49;;;;;;;8.73;7.82;;;13.90;99.90;;;;;;4167698;28;20066;-73
2022/05/09 05:44:51;;;;;;;8.55;7.78;;;14.00;99.90;;;;;;4174844;28;20064;-73
2022/05/09 05:46:52;;;;;;;9.57;8.63;;;14.20;99.90;;;;;;4164059;28;20058;-73
2022/05/09 05:48:54;;;;;;;11.38;8.70;;;14.20;99.70;;;;;;4161758;28;20062;-74
2022/05/09 05:50:56;;;;;;;9.25;8.32;;;14.40;99.90;;;;;;4162212;28;20789;-73
2022/05/09 05:52:58;;;;;;;10.07;8.13;;;14.50;99.20;;;;;;4158520;28;20168;-74
2022/05/09 05:55:00;;;;;;;8.18;7.57;;;14.60;98.10;;;;;;4165545;28;20897;-73
2022/05/09 05:57:03;;;;;;;10.15;8.63;;;14.70;97.90;;;;;;4163837;28;20057;-73
2022/05/09 05:59:05;;;;;;;8.02;7.32;;;14.80;97.40;;;;;;4168064;28;20105;-73
2022/05/09 06:01:06;;;;;;;9.13;8.23;;;14.80;97.30;;;;;;4173639;28;20068;-73
2022/05/09 06:03:08;;;;;;;8.07;7.28;;;14.90;96.50;;;;;;4159993;28;20789;-74
2022/05/09 06:05:11;;;;;;;9.90;7.70;;;15.00;95.80;;;;;;4159637;28;20092;-73
2022/05/09 06:07:13;;;;;;;8.10;7.40;;;15.00;95.20;;;;;;4168787;28;20126;-74
2022/05/09 06:09:16;;;;;;;7.82;7.22;;;15.00;95.20;;;;;;4176130;28;20096;-74
2022/05/09 06:11:22;;;;;;;7.53;6.85;;;15.00;95.10;;;;;;4173100;28;20076;-74
2022/05/09 06:13:24;;;;;;;8.23;7.43;;;15.10;95.20;;;;;;4170410;28;20096;-74
2022/05/09 06:15:28;;;;;;;8.80;7.90;;;15.20;95.10;;;;;;4159955;28;20091;-73
2022/05/09 06:17:30;;;;;;;8.00;7.30;;;15.20;94.70;;;;;;4160510;28;20762;-74
2022/05/09 06:19:32;;;;;;;8.25;7.45;;;15.30;94.40;;;;;;4166490;28;20145;-74
2022/05/09 06:21:35;;;;;;;9.30;7.70;;;15.30;94.30;;;;;;4166081;28;20057;-74
2022/05/09 06:23:36;;;;;;;8.32;7.55;;;15.40;94.30;;;;;;4160765;28;20109;-74
2022/05/09 06:25:40;;;;;;;7.07;6.47;;;15.50;94.20;;;;;;4165936;28;20102;-74
2022/05/09 06:27:42;;;;;;;8.52;7.45;;;15.60;94.00;;;;;;4156799;28;20796;-74
2022/05/09 06:29:44;;;;;;;14.45;7.93;;;15.60;93.70;;;;;;4166263;28;20062;-74
2022/05/09 06:32:03;;;;;;;7.70;6.90;;;15.60;93.30;;;;;;4161361;28;20058;-73
2022/05/09 06:34:06;;;;;;;7.43;6.80;;;15.60;93.30;;;;;;4166094;28;20132;-74
2022/05/09 06:36:08;;;;;;;8.25;7.45;;;15.70;93.20;;;;;;4162914;28;20092;-73
2022/05/09 06:38:14;;;;;;;7.93;7.30;;;15.70;93.00;;;;;;4171555;28;20069;-74
2022/05/09 06:40:17;;;;;;;8.45;7.65;;;15.70;92.80;;;;;;4170691;28;20057;-76
2022/05/09 06:42:19;;;;;;;10.55;7.45;;;15.70;92.80;;;;;;4170438;28;20067;-75
2022/05/09 06:44:20;;;;;;;10.75;7.53;;;15.70;92.70;;;;;;4167252;28;20058;-75
2022/05/09 06:46:22;;;;;;;7.65;6.82;;;15.70;92.70;;;;;;4164416;28;20068;-75
2022/05/09 06:48:24;;;;;;;7.97;7.22;;;15.80;92.60;;;;;;4168242;28;20101;-73
2022/05/09 06:50:32;;;;;;;8.32;7.53;;;15.80;92.10;;;;;;4168587;28;20839;-73
2022/05/09 06:52:36;;;;;;;7.78;7.07;;;15.70;92.20;;;;;;4173523;28;20880;-73
2022/05/09 06:54:38;;;;;;;8.85;7.60;;;15.80;92.40;;;;;;4169837;28;20057;-73
2022/05/09 06:56:39;;;;;;;9.43;8.35;;;15.80;92.60;;;;;;4165153;28;20058;-73
2022/05/09 06:58:41;;;;;;;9.00;8.13;;;15.80;92.40;;;;;;4165992;28;20935;-74
2022/05/09 07:00:44;;;;;;;9.07;8.18;;;15.90;92.50;;;;;;4176810;28;20062;-74
2022/05/09 07:02:46;;;;;;;8.18;7.32;;;16.00;92.00;;;;;;4165755;28;20057;-73
2022/05/09 07:04:48;;;;;;;8.20;7.00;;;16.10;91.60;;;;;;4158725;28;20120;-74
2022/05/09 07:06:49;;;;;;;8.52;7.72;;;16.20;91.60;;;;;;4178212;28;20053;-74
2022/05/09 07:08:51;;;;;;;9.60;7.30;;;16.20;91.50;;;;;;4166910;28;20070;-75
2022/05/09 07:10:53;;;;;;;9.32;7.10;;;16.30;90.90;;;;;;4165493;28;20152;-73
2022/05/09 07:13:13;;;;;;;9.85;7.22;;;16.20;91.10;;;;;;4166095;28;20813;-75
2022/05/09 07:15:23;;;;;;;7.57;6.90;;;16.30;91.20;;;;;;4161225;28;20675;-75
2022/05/09 07:17:25;;;;;;;7.72;7.00;;;16.40;90.80;;;;;;4192741;28;20156;-75
2022/05/09 07:19:27;;;;;;;7.20;6.53;;;16.40;91.20;;;;;;4168615;28;20058;-76
2022/05/09 07:21:29;;;;;;;11.38;7.30;;;16.50;90.80;;;;;;4166762;28;20065;-75
2022/05/09 07:23:31;;;;;;;7.10;6.50;;;16.50;90.40;;;;;;4159826;28;20058;-75
2022/05/09 07:25:33;;;;;;;7.13;6.43;;;16.50;89.50;;;;;;4166040;28;20061;-75
2022/05/09 07:27:35;;;;;;;8.00;6.60;;;16.50;90.00;;;;;;4164591;28;20054;-76
2022/05/09 07:29:36;;;;;;;6.80;6.20;;;16.50;90.00;;;;;;4172939;28;20796;-75
2022/05/09 07:31:38;;;;;;;6.57;6.07;;;16.40;89.90;;;;;;4177021;28;20172;-77
2022/05/09 07:33:40;;;;;;;6.25;5.75;;;16.50;90.10;;;;;;4171910;28;20135;-76
2022/05/09 07:35:43;;;;;;;7.85;6.43;;;16.60;90.40;;;;;;4171694;28;20838;-76
2022/05/09 07:37:46;;;;;;;7.00;6.30;;;16.70;89.30;;;;;;4163982;28;20058;-77
2022/05/09 07:39:47;;;;;;;6.03;5.63;;;16.70;89.30;;;;;;4167833;28;20179;-76
2022/05/09 07:41:49;;;;;;;7.20;6.05;;;16.80;88.80;;;;;;4167478;28;20111;-76
2022/05/09 07:43:51;;;;;;;7.30;6.63;;;16.90;89.40;;;;;;4166838;28;20061;-76
2022/05/09 07:45:54;;;;;;;7.40;6.70;;;16.90;87.40;;;;;;4166754;28;20877;-77
2022/05/09 07:47:56;;;;;;;7.63;6.32;;;16.90;88.00;;;;;;4167435;28;20062;-76
2022/05/09 07:49:57;;;;;;;7.00;6.40;;;17.00;87.90;;;;;;4168794;28;20161;-77
2022/05/09 07:51:59;;;;;;;6.35;5.72;;;17.20;87.60;;;;;;4176832;28;20940;-77
2022/05/09 07:54:01;;;;;;;6.47;5.88;;;17.20;86.80;;;;;;4166023;28;20108;-76
2022/05/09 07:56:04;;;;;;;6.68;5.50;;;17.30;87.80;;;;;;4172344;28;20883;-75
2022/05/09 07:58:07;;;;;;;7.07;5.72;;;17.40;88.00;;;;;;4161267;28;20096;-76
2022/05/09 08:00:10;;;;;;;7.75;6.97;;;17.40;87.10;;;;;;4165248;28;20810;-76
2022/05/09 08:02:12;;;;;;;6.22;5.63;;;17.50;85.50;;;;;;4168896;28;20057;-76
2022/05/09 08:04:14;;;;;;;6.35;5.88;;;17.60;84.70;;;;;;4178457;28;21150;-76
2022/05/09 08:06:16;;;;;;;6.47;5.90;;;17.50;85.00;;;;;;4166897;28;20173;-75
2022/05/09 08:08:18;;;;;;;8.00;5.95;;;17.60;85.00;;;;;;4165223;28;20060;-76
2022/05/09 08:10:21;;;;;;;6.85;6.10;;;17.60;86.10;;;;;;4165288;28;20864;-75
2022/05/09 08:12:23;;;;;;;7.55;6.30;;;17.60;84.60;;;;;;4164714;28;20822;-76
2022/05/09 08:14:25;;;;;;;7.57;6.88;;;17.70;86.10;;;;;;4155967;28;20974;-75
2022/05/09 08:16:29;;;;;;;9.70;5.97;;;17.70;83.90;;;;;;4184213;28;20808;-76
2022/05/09 08:18:32;;;;;;;6.80;6.20;;;17.80;83.60;;;;;;4161749;28;20097;-76
2022/05/09 08:20:35;;;;;;;9.07;7.07;;;17.90;81.70;;;;;;4166786;28;20057;-76
2022/05/09 08:22:37;;;;;;;7.40;6.53;;;18.00;81.70;;;;;;4170324;28;20089;-76
2022/05/09 08:24:38;;;;;;;10.82;6.18;;;18.10;82.40;;;;;;4180238;28;20156;-75
2022/05/09 08:26:40;;;;;;;9.02;6.85;;;18.10;82.60;;;;;;4164865;28;20069;-76
2022/05/09 08:28:42;;;;;;;6.72;6.13;;;18.20;82.70;;;;;;4165179;28;20064;-76
2022/05/09 08:30:44;;;;;;;8.95;7.18;;;18.30;83.10;;;;;;4167498;28;20058;-77
2022/05/09 08:32:46;;;;;;;7.78;6.50;;;18.20;80.60;;;;;;4184293;28;20088;-76
2022/05/09 08:34:51;;;;;;;6.68;6.07;;;18.30;80.00;;;;;;4172020;28;20065;-76
2022/05/09 08:36:55;;;;;;;8.45;6.53;;;18.20;79.50;;;;;;4174275;28;20072;-77
2022/05/09 08:38:57;;;;;;;5.90;5.40;;;18.00;79.10;;;;;;4171607;28;20874;-76
2022/05/09 08:41:09;;;;;;;6.65;6.05;;;18.10;79.50;;;;;;4166365;28;20185;-75
2022/05/09 08:43:59;;;;;;;6.90;6.18;;;18.20;78.70;;;;;;4161544;28;20097;-76
2022/05/09 08:46:12;;;;;;;6.72;6.00;;;18.20;79.20;;;;;;4172310;28;20064;-76
2022/05/09 08:48:45;;;;;;;10.38;6.40;;;18.30;79.60;;;;;;4158973;28;20057;-76
2022/05/09 08:51:04;;;;;;;8.45;6.95;;;18.20;79.20;;;;;;4163129;28;20928;-75
2022/05/09 08:53:22;;;;;;;8.05;6.25;;;18.20;79.70;;;;;;4189249;28;20139;-76
2022/05/09 08:55:27;;;;;;;6.82;6.30;;;18.30;81.90;;;;;;4174047;28;20148;-76
2022/05/09 08:57:38;;;;;;;6.22;5.63;;;18.40;78.40;;;;;;4179073;28;20061;-76
2022/05/09 09:00:23;;;;;;;7.15;6.45;;;18.50;80.50;;;;;;4175068;28;21266;-77
2022/05/09 09:02:40;;;;;;;7.05;5.20;;;18.70;79.00;;;;;;4104810;28;20059;-77
2022/05/09 09:04:49;;;;;;;6.45;5.90;;;18.80;77.40;;;;;;4152359;28;20050;-77
2022/05/09 09:07:29;;;;;;;6.20;5.70;;;18.90;76.80;;;;;;4179464;28;20058;-78
2022/05/09 09:09:49;;;;;;;8.60;5.35;;;18.90;77.90;;;;;;4181205;28;20132;-77
2022/05/09 09:12:43;;;;;;;5.93;5.28;;;18.90;77.90;;;;;;4173495;28;20193;-77
2022/05/09 09:15:07;;;;;;;5.32;4.93;;;19.10;77.90;;;;;;4160924;28;20805;-77
2022/05/09 09:17:24;;;;;;;5.00;4.53;;;19.20;76.00;;;;;;4168296;28;20584;-76
2022/05/09 09:20:03;;;;;;;6.45;4.55;;;19.30;76.40;;;;;;4176049;28;20061;-77
2022/05/09 09:22:27;;;;;;;4.68;4.38;;;19.30;75.70;;;;;;4165120;28;20085;-76
2022/05/09 09:24:51;;;;;;;5.18;4.88;;;19.30;75.00;;;;;;4176998;28;20161;-76
2022/05/09 09:27:32;;;;;;;5.15;4.75;;;19.20;74.80;;;;;;4178935;28;20062;-76
2022/05/09 09:30:00;;;;;;;4.68;4.32;;;19.00;74.30;;;;;;4177287;28;20061;-76
2022/05/09 09:32:14;;;;;;;5.57;5.18;;;19.00;75.20;;;;;;4181954;28;20068;-75
2022/05/09 09:34:39;;;;;;;5.38;4.97;;;19.00;74.90;;;;;;4174955;28;20058;-76
2022/05/09 09:36:50;;;;;;;5.97;5.40;;;19.10;76.20;;;;;;4171992;28;20058;-76
2022/05/09 09:38:57;;;;;;;7.97;5.60;;;19.20;74.40;;;;;;4174942;28;20659;-75
2022/05/09 09:41:35;;;;;;;5.75;5.18;;;19.30;73.50;;;;;;4173584;28;20762;-75
2022/05/09 09:43:38;;;;;;;6.18;5.57;;;19.30;73.70;;;;;;4106366;28;20063;-75
2022/05/09 09:45:50;;;;;;;4.90;4.47;;;19.40;75.00;;;;;;4143731;28;20688;-76
2022/05/09 09:48:30;;;;;;;5.82;5.32;;;19.50;75.00;;;;;;4174401;28;20062;-76
2022/05/09 09:50:32;;;;;;;5.80;5.30;;;19.50;75.10;;;;;;4185027;28;20176;-76
2022/05/09 09:52:52;;;;;;;5.80;5.40;;;19.20;73.50;;;;;;4173453;28;20068;-75
2022/05/09 09:54:54;;;;;;;7.03;6.30;;;19.20;74.30;;;;;;4171967;28;20068;-76
2022/05/09 09:56:56;;;;;;;5.97;5.25;;;19.40;74.10;;;;;;4169567;28;20907;-75
2022/05/09 09:58:59;;;;;;;5.18;4.60;;;19.40;72.50;;;;;;4169436;28;20093;-75
2022/05/09 10:01:25;;;;;;;5.30;4.80;;;19.40;73.90;;;;;;4166757;28;20089;-76
2022/05/09 10:03:31;;;;;;;5.38;4.97;;;19.70;72.90;;;;;;4159215;28;20072;-76
2022/05/09 10:05:36;;;;;;;5.53;5.03;;;19.90;71.60;;;;;;4168096;28;20058;-75
2022/05/09 10:07:43;;;;;;;5.20;4.80;;;20.10;70.10;;;;;;4172545;28;20773;-76
2022/05/09 10:10:04;;;;;;;5.18;4.68;;;20.00;70.50;;;;;;4170318;28;20061;-76
2022/05/09 10:12:18;;;;;;;6.75;3.97;;;20.20;70.70;;;;;;4158954;28;20157;-76
2022/05/09 10:14:35;;;;;;;4.55;4.18;;;20.20;71.20;;;;;;4167746;28;20061;-76
2022/05/09 10:16:45;;;;;;;5.47;5.07;;;20.50;70.30;;;;;;4161287;28;20780;-75
2022/05/09 10:18:49;;;;;;;;;;;20.60;68.90;;;;;;4166677;28;20053;-75
2022/05/09 10:20:55;;;;;;;6.57;5.03;;;20.70;67.80;;;;;;4185142;28;19935;-76
2022/05/09 10:26:01;;;;;;;5.75;5.20;;;20.40;68.20;;;;;;4161247;28;20899;-75
2022/05/09 10:28:06;;;;;;;5.50;4.95;;;20.30;69.40;;;;;;4165858;28;20778;-75
2022/05/09 10:30:21;;;;;;;4.70;4.40;;;20.30;70.70;;;;;;4171157;28;20053;-77
2022/05/09 10:32:37;;;;;;;5.82;5.20;;;20.20;70.70;;;;;;4180691;28;20093;-77
2022/05/09 10:34:48;;;;;;;5.28;4.88;;;20.20;71.20;;;;;;4170791;28;20072;-76
2022/05/09 10:37:07;;;;;;;4.40;4.10;;;20.10;70.10;;;;;;4166205;28;20066;-77
2022/05/09 10:39:39;;;;;;;6.97;4.78;;;20.00;70.20;;;;;;4173504;28;20096;-76
2022/05/09 10:41:50;;;;;;;5.10;4.70;;;19.90;70.40;;;;;;4178147;28;20153;-77
2022/05/09 10:44:13;;;;;;;5.40;4.90;;;19.90;71.20;;;;;;4201858;28;20093;-77
2022/05/09 10:46:17;;;;;;;5.03;4.45;;;20.00;70.10;;;;;;4171658;28;20061;-77
2022/05/09 10:48:35;;;;;;;5.20;4.90;;;20.10;70.60;;;;;;4173319;28;20064;-77
2022/05/09 10:51:04;;;;;;;5.32;4.82;;;20.10;68.90;;;;;;4173754;28;20061;-77
2022/05/09 10:53:29;;;;;;;7.55;5.40;;;20.20;69.80;;;;;;4175049;28;20096;-77
2022/05/09 10:55:50;;;;;;;6.40;4.85;;;20.50;69.10;;;;;;4177590;28;20057;-76
2022/05/09 10:58:10;;;;;;;4.47;4.07;;;20.60;69.60;;;;;;4171558;28;20121;-77
2022/05/09 11:00:19;;;;;;;4.75;4.13;;;20.70;67.00;;;;;;4174269;28;20804;-77
2022/05/09 11:02:33;;;;;;;5.20;3.97;;;20.80;68.10;;;;;;4168616;28;20762;-78
2022/05/09 11:04:37;;;;;;;4.97;4.57;;;21.00;67.50;;;;;;4172711;28;20064;-77
2022/05/09 11:07:01;;;;;;;3.80;3.53;;;21.30;65.20;;;;;;4172526;28;20058;-77